createdAt,value
2022-09-17T00:01:24.424Z,98806.28
2022-09-17T00:03:53.631Z,98800.53
2022-09-17T00:06:21.587Z,98796.28
2022-09-17T00:08:52.031Z,98792.59
2022-09-17T00:11:25.071Z,98795.56
2022-09-17T00:13:53.856Z,98793.53
2022-09-17T00:16:28.303Z,98786.47
2022-09-17T00:18:56.293Z,98800.91
2022-09-17T00:21:24.014Z,98799.25
2022-09-17T00:23:59.254Z,98802.94
2022-09-17T00:26:27.795Z,98795.34
2022-09-17T00:28:56.929Z,98799.44
2022-09-17T00:31:24.812Z,98800.72
2022-09-17T00:33:55.857Z,98792.38
2022-09-17T00:36:23.289Z,98802.91
2022-09-17T00:38:54.337Z,98803.81
2022-09-17T00:41:25.294Z,98804.78
2022-09-17T00:43:58.574Z,98803.25
2022-09-17T00:46:43.493Z,98804.38
2022-09-17T00:49:22.963Z,98820.25
2022-09-17T00:52:00.624Z,98836.72
2022-09-17T00:54:28.481Z,98831.72
2022-09-17T00:56:57.072Z,98836.38
2022-09-17T00:59:25.024Z,98840.41
2022-09-17T01:01:55.189Z,98841.13
2022-09-17T01:04:27.587Z,98834.66
2022-09-17T01:07:32.437Z,98832.81
2022-09-17T01:10:38.663Z,98828.53
2022-09-17T01:13:31.295Z,98836.28
2022-09-17T01:16:10.107Z,98844.44
2022-09-17T01:18:46.167Z,98849.81
2022-09-17T01:21:25.304Z,98844.06
2022-09-17T01:24:22.677Z,98831.84
2022-09-17T01:26:55.742Z,98840.53
2022-09-17T01:29:28.821Z,98838.72
2022-09-17T01:31:58.230Z,98828.16
2022-09-17T01:34:34.624Z,98830.34
2022-09-17T01:37:14.856Z,98813.16
2022-09-17T01:40:03.561Z,98822.38
2022-09-17T01:43:05.278Z,98815.72
2022-09-17T01:45:52.148Z,98815.72
2022-09-17T01:48:25.754Z,98811.63
2022-09-17T01:50:57.822Z,98812.16
2022-09-17T01:53:31.046Z,98816.94
2022-09-17T01:56:00.739Z,98817.50
2022-09-17T01:58:35.663Z,98817.66
2022-09-17T02:01:06.913Z,98815.44
2022-09-17T02:03:40.717Z,98819.69
2022-09-17T02:06:18.552Z,98808.38
2022-09-17T02:08:51.612Z,98797.31
2022-09-17T02:11:19.787Z,98792.66
2022-09-17T02:14:00.261Z,98789.72
2022-09-17T02:16:29.214Z,98783.25
2022-09-17T02:19:00.710Z,98785.50
2022-09-17T02:21:27.759Z,98784.03
2022-09-17T02:24:03.956Z,98788.34
2022-09-17T02:26:40.089Z,98789.28
2022-09-17T02:29:19.613Z,98792.28
2022-09-17T02:31:46.747Z,98780.63
2022-09-17T02:34:14.340Z,98782.47
2022-09-17T02:36:41.227Z,98784.69
2022-09-17T02:39:09.258Z,98779.53
2022-09-17T02:41:45.121Z,98791.53
2022-09-17T02:44:55.572Z,98797.28
2022-09-17T02:47:49.833Z,98798.03
2022-09-17T02:50:25.490Z,98781.59
2022-09-17T02:53:11.160Z,98762.91
2022-09-17T02:55:45.175Z,98760.31
2022-09-17T02:58:37.820Z,98738.31
2022-09-17T03:01:12.930Z,98743.66
2022-09-17T03:03:43.310Z,98748.28
2022-09-17T03:06:10.483Z,98767.91
2022-09-17T03:08:43.150Z,98770.13
2022-09-17T03:11:12.966Z,98771.06
2022-09-17T03:13:40.404Z,98788.66
2022-09-17T03:16:08.082Z,98787.91
2022-09-17T03:18:35.230Z,98780.13
2022-09-17T03:21:02.481Z,98784.94
2022-09-17T03:23:29.663Z,98784.19
2022-09-17T03:25:56.524Z,98777.72
2022-09-17T03:28:25.410Z,98765.13
2022-09-17T03:30:53.111Z,98766.63
2022-09-17T03:33:20.211Z,98762.16
2022-09-17T03:35:47.356Z,98758.66
2022-09-17T03:38:14.440Z,98756.06
2022-09-17T03:40:41.402Z,98747.00
2022-09-17T03:43:09.165Z,98751.44
2022-09-17T03:45:36.188Z,98756.25
2022-09-17T03:48:05.700Z,98737.56
2022-09-17T03:50:32.891Z,98749.78
2022-09-17T03:52:59.836Z,98753.47
2022-09-17T03:55:26.799Z,98753.09
2022-09-17T03:57:54.122Z,98742.56
2022-09-17T04:00:21.064Z,98726.63
2022-09-17T04:02:48.017Z,98722.94
2022-09-17T04:05:17.418Z,98727.38
2022-09-17T04:07:44.481Z,98724.06
2022-09-17T04:10:11.428Z,98724.06
2022-09-17T04:12:39.299Z,98727.94
2022-09-17T04:15:07.289Z,98729.97
2022-09-17T04:17:34.258Z,98724.06
2022-09-17T04:20:01.512Z,98735.34
2022-09-17T04:22:28.465Z,98739.03
2022-09-17T04:24:55.702Z,98748.81
2022-09-17T04:27:22.855Z,98754.00
2022-09-17T04:29:50.043Z,98756.41
2022-09-17T04:32:19.512Z,98764.94
2022-09-17T04:34:46.874Z,98769.75
2022-09-17T04:37:13.724Z,98769.94
2022-09-17T04:39:42.956Z,98783.84
2022-09-17T04:42:10.113Z,98779.38
2022-09-17T04:44:36.935Z,98784.19
2022-09-17T04:47:03.834Z,98756.81
2022-09-17T04:49:31.141Z,98760.13
2022-09-17T04:51:58.236Z,98764.03
2022-09-17T04:54:25.400Z,98771.97
2022-09-17T04:56:54.961Z,98763.09
2022-09-17T04:59:21.835Z,98754.38
2022-09-17T05:01:49.648Z,98760.13
2022-09-17T05:04:19.631Z,98765.28
2022-09-17T05:06:46.758Z,98766.78
2022-09-17T05:09:15.048Z,98756.97
2022-09-17T05:11:42.203Z,98768.06
2022-09-17T05:14:09.456Z,98755.31
2022-09-17T05:16:38.759Z,98751.44
2022-09-17T05:19:06.148Z,98761.25
2022-09-17T05:21:35.311Z,98764.94
2022-09-17T05:24:02.512Z,98759.41
2022-09-17T05:26:30.039Z,98757.22
2022-09-17T05:28:57.277Z,98766.47
2022-09-17T05:31:24.688Z,98776.66
2022-09-17T05:33:51.918Z,98793.69
2022-09-17T05:36:21.224Z,98799.44
2022-09-17T05:38:48.173Z,98797.59
2022-09-17T05:41:15.850Z,98809.06
2022-09-17T05:43:45.921Z,98807.94
2022-09-17T05:46:13.199Z,98801.47
2022-09-17T05:48:40.388Z,98810.16
2022-09-17T05:51:07.476Z,98807.00
2022-09-17T05:53:34.478Z,98806.28
2022-09-17T05:56:01.802Z,98797.56
2022-09-17T05:58:29.717Z,98810.13
2022-09-17T06:01:01.378Z,98819.22
2022-09-17T06:03:30.890Z,98811.97
2022-09-17T06:05:59.997Z,98813.63
2022-09-17T06:08:28.777Z,98818.28
2022-09-17T06:11:01.518Z,98813.25
2022-09-17T06:13:29.363Z,98803.44
2022-09-17T06:15:56.648Z,98785.47
2022-09-17T06:18:23.748Z,98777.47
2022-09-17T06:21:09.364Z,98762.50
2022-09-17T06:23:37.283Z,98763.41
2022-09-17T06:26:06.200Z,98748.75
2022-09-17T06:28:35.775Z,98735.94
2022-09-17T06:31:07.409Z,98725.13
2022-09-17T06:33:36.376Z,98721.03
2022-09-17T06:36:13.299Z,98733.84
2022-09-17T06:38:41.627Z,98752.75
2022-09-17T06:41:08.990Z,98744.41
2022-09-17T06:43:38.732Z,98752.25
2022-09-17T06:46:10.276Z,98747.06
2022-09-17T06:48:38.651Z,98755.94
2022-09-17T06:51:08.193Z,98760.78
2022-09-17T06:53:37.452Z,98760.22
2022-09-17T06:56:08.613Z,98764.09
2022-09-17T06:58:41.941Z,98765.59
2022-09-17T07:01:10.398Z,98764.84
2022-09-17T07:03:38.259Z,98762.25
2022-09-17T07:06:10.079Z,98761.47
2022-09-17T07:08:39.822Z,98762.56
2022-09-17T07:11:08.166Z,98763.06
2022-09-17T07:13:35.675Z,98755.06
2022-09-17T07:16:05.147Z,98757.97
2022-09-17T07:18:34.853Z,98763.38
2022-09-17T07:21:06.360Z,98775.78
2022-09-17T07:23:37.219Z,98783.63
2022-09-17T07:26:08.350Z,98793.63
2022-09-17T07:28:35.503Z,98807.72
2022-09-17T07:31:05.853Z,98822.72
2022-09-17T07:33:35.676Z,98827.75
2022-09-17T07:36:05.265Z,98822.16
2022-09-17T07:38:34.377Z,98827.31
2022-09-17T07:41:04.218Z,98827.88
2022-09-17T07:43:33.409Z,98826.75
2022-09-17T07:46:02.327Z,98838.56
2022-09-17T07:48:30.381Z,98860.28
2022-09-17T07:50:57.829Z,98871.41
2022-09-17T07:53:25.315Z,98875.47
2022-09-17T07:55:57.510Z,98875.47
2022-09-17T07:58:32.501Z,98879.59
2022-09-17T08:01:04.273Z,98882.00
2022-09-17T08:03:31.301Z,98899.84
2022-09-17T08:06:08.189Z,98898.91
2022-09-17T08:08:36.883Z,98897.38
2022-09-17T08:11:05.826Z,98894.97
2022-09-17T08:13:35.670Z,98889.78
2022-09-17T08:16:05.630Z,98884.59
2022-09-17T08:18:33.815Z,98884.91
2022-09-17T08:21:02.664Z,98891.97
2022-09-17T08:23:31.262Z,98905.09
2022-09-17T08:26:00.531Z,98908.41
2022-09-17T08:28:29.592Z,98912.69
2022-09-17T08:31:02.084Z,98919.94
2022-09-17T08:33:33.839Z,98910.31
2022-09-17T08:36:01.211Z,98918.75
2022-09-17T08:38:32.531Z,98935.38
2022-09-17T08:41:06.054Z,98926.44
2022-09-17T08:43:42.154Z,98935.56
2022-09-17T08:46:10.929Z,98919.63
2022-09-17T08:48:44.740Z,98926.25
2022-09-17T08:51:51.678Z,98936.28
2022-09-17T08:54:36.009Z,98938.25
2022-09-17T08:57:15.434Z,98931.94
2022-09-17T09:00:14.195Z,98913.03
2022-09-17T09:02:45.985Z,98918.41
2022-09-17T09:05:17.824Z,98915.47
2022-09-17T09:08:03.222Z,98913.09
2022-09-17T09:10:49.276Z,98914.22
2022-09-17T09:13:17.465Z,98913.81
2022-09-17T09:15:51.682Z,98913.41
2022-09-17T09:18:22.112Z,98918.00
2022-09-17T09:20:51.660Z,98920.56
2022-09-17T09:23:35.397Z,98922.44
2022-09-17T09:26:14.680Z,98921.16
2022-09-17T09:29:04.416Z,98924.13
2022-09-17T09:31:53.168Z,98921.53
2022-09-17T09:34:20.476Z,98931.16
2022-09-17T09:36:48.033Z,98934.88
2022-09-17T09:39:40.316Z,98930.47
2022-09-17T09:42:31.386Z,98923.03
2022-09-17T09:45:16.322Z,98923.41
2022-09-17T09:48:03.574Z,98915.59
2022-09-17T09:51:08.871Z,98920.22
2022-09-17T09:53:52.528Z,98919.09
2022-09-17T09:56:46.322Z,98915.88
2022-09-17T09:59:16.276Z,98909.16
2022-09-17T10:01:45.194Z,98904.75
2022-09-17T10:04:26.092Z,98904.56
2022-09-17T10:07:07.771Z,98902.84
2022-09-17T10:09:46.087Z,98902.25
2022-09-17T10:12:13.514Z,98905.41
2022-09-17T10:14:42.932Z,98899.63
2022-09-17T10:17:26.888Z,98900.91
2022-09-17T10:20:10.730Z,98899.41
2022-09-17T10:22:39.998Z,98892.47
2022-09-17T10:25:23.215Z,98893.28
2022-09-17T10:27:50.774Z,98888.81
2022-09-17T10:30:19.363Z,98882.50
2022-09-17T10:33:44.169Z,98881.78
2022-09-17T10:36:16.223Z,98884.63
2022-09-17T10:38:46.433Z,98884.00
2022-09-17T10:41:22.118Z,98881.88
2022-09-17T10:43:50.611Z,98862.00
2022-09-17T10:46:34.187Z,98866.91
2022-09-17T10:49:20.332Z,98865.84
2022-09-17T10:51:48.686Z,98860.25
2022-09-17T10:54:40.707Z,98857.13
2022-09-17T10:57:16.810Z,98850.19
2022-09-17T10:59:58.152Z,98849.59
2022-09-17T11:03:09.326Z,98853.53
2022-09-17T11:05:48.159Z,98850.75
2022-09-17T11:08:54.154Z,98843.06
2022-09-17T11:11:48.143Z,98843.28
2022-09-17T11:14:36.052Z,98837.59
2022-09-17T11:17:18.452Z,98848.91
2022-09-17T11:20:08.326Z,98843.25
2022-09-17T11:22:54.108Z,98848.41
2022-09-17T11:25:21.377Z,98856.69
2022-09-17T11:28:04.586Z,98864.41
2022-09-17T11:30:55.163Z,98861.72
2022-09-17T11:33:59.199Z,98861.44
2022-09-17T11:37:04.618Z,98849.16
2022-09-17T11:40:02.515Z,98844.66
2022-09-17T11:42:47.997Z,98844.03
2022-09-17T11:45:33.428Z,98840.75
2022-09-17T11:48:08.047Z,98828.56
2022-09-17T11:50:41.846Z,98816.47
2022-09-17T11:53:20.355Z,98813.38
2022-09-17T11:55:55.841Z,98831.13
2022-09-17T11:58:43.877Z,98857.41
2022-09-17T12:01:19.113Z,98854.34
2022-09-17T12:04:00.151Z,98838.81
2022-09-17T12:06:42.254Z,98832.81
2022-09-17T12:09:33.075Z,98833.78
2022-09-17T12:12:26.377Z,98820.66
2022-09-17T12:15:19.987Z,98815.91
2022-09-17T12:18:31.105Z,98806.31
2022-09-17T12:21:02.100Z,98790.50
2022-09-17T12:23:40.587Z,98779.75
2022-09-17T12:26:52.217Z,98771.19
2022-09-17T12:29:51.529Z,98748.25
2022-09-17T12:32:49.288Z,98747.88
2022-09-17T12:36:02.922Z,98745.63
2022-09-17T12:38:51.557Z,98750.03
2022-09-17T12:41:49.842Z,98753.97
2022-09-17T12:44:23.047Z,98746.34
2022-09-17T12:47:09.501Z,98748.03
2022-09-17T12:49:55.666Z,98748.88
2022-09-17T12:52:53.982Z,98763.97
2022-09-17T12:55:36.566Z,98767.91
2022-09-17T12:58:22.324Z,98759.44
2022-09-17T13:00:58.476Z,98777.44
2022-09-17T13:03:47.925Z,98774.88
2022-09-17T13:06:24.316Z,98773.00
2022-09-17T13:09:11.542Z,98777.47
2022-09-17T13:11:45.867Z,98777.84
2022-09-17T13:14:18.533Z,98788.59
2022-09-17T13:16:54.610Z,98784.31
2022-09-17T13:19:59.605Z,98790.81
2022-09-17T13:22:31.193Z,98788.22
2022-09-17T13:25:05.482Z,98784.88
2022-09-17T13:27:37.711Z,98777.47
2022-09-17T13:30:06.759Z,98776.19
2022-09-17T13:32:37.072Z,98766.94
2022-09-17T13:35:10.118Z,98763.59
2022-09-17T13:37:40.394Z,98756.38
2022-09-17T13:40:25.990Z,98761.38
2022-09-17T13:42:59.401Z,98764.72
2022-09-17T13:45:31.669Z,98770.28
2022-09-17T13:48:09.322Z,98767.13
2022-09-17T13:50:38.014Z,98789.94
2022-09-17T13:53:14.738Z,98787.13
2022-09-17T13:55:48.251Z,98794.53
2022-09-17T13:58:18.794Z,98789.19
2022-09-17T14:00:54.869Z,98786.78
2022-09-17T14:03:31.570Z,98782.91
2022-09-17T14:06:19.516Z,98784.19
2022-09-17T14:08:47.717Z,98792.69
2022-09-17T14:11:23.992Z,98798.06
2022-09-17T14:14:05.775Z,98803.06
2022-09-17T14:16:40.594Z,98806.41
2022-09-17T14:19:32.868Z,98805.84
2022-09-17T14:22:02.909Z,98808.06
2022-09-17T14:24:30.254Z,98796.25
2022-09-17T14:27:15.962Z,98787.91
2022-09-17T14:30:03.921Z,98804.19
2022-09-17T14:32:42.306Z,98806.44
2022-09-17T14:35:33.733Z,98813.09
2022-09-17T14:38:20.045Z,98821.63
2022-09-17T14:41:17.918Z,98820.88
2022-09-17T14:44:08.283Z,98823.09
2022-09-17T14:46:40.987Z,98814.94
2022-09-17T14:49:25.552Z,98811.97
2022-09-17T14:51:54.914Z,98802.56
2022-09-17T14:54:35.818Z,98800.69
2022-09-17T14:57:19.685Z,98797.56
2022-09-17T14:59:49.535Z,98792.91
2022-09-17T15:02:38.446Z,98795.31
2022-09-17T15:05:23.794Z,98784.56
2022-09-17T15:07:51.738Z,98787.34
2022-09-17T15:10:23.706Z,98780.50
2022-09-17T15:12:51.593Z,98774.00
2022-09-17T15:15:22.515Z,98769.72
2022-09-17T15:17:50.851Z,98767.13
2022-09-17T15:20:24.685Z,98755.63
2022-09-17T15:23:15.521Z,98760.81
2022-09-17T15:25:44.496Z,98760.09
2022-09-17T15:28:33.368Z,98751.72
2022-09-17T15:31:05.745Z,98747.59
2022-09-17T15:33:34.174Z,98747.59
2022-09-17T15:36:10.282Z,98752.38
2022-09-17T15:38:39.246Z,98751.25
2022-09-17T15:41:39.735Z,98750.84
2022-09-17T15:44:28.971Z,98749.41
2022-09-17T15:47:37.653Z,98748.47
2022-09-17T15:50:11.960Z,98754.03
2022-09-17T15:52:39.492Z,98753.31
2022-09-17T15:55:34.287Z,98760.34
2022-09-17T15:58:06.243Z,98754.78
2022-09-17T16:00:33.486Z,98755.91
2022-09-17T16:03:55.586Z,98752.38
2022-09-17T16:06:25.597Z,98751.13
2022-09-17T16:08:56.688Z,98757.81
2022-09-17T16:11:24.896Z,98763.75
2022-09-17T16:13:54.177Z,98771.34
2022-09-17T16:16:33.865Z,98760.78
2022-09-17T16:19:01.415Z,98769.13
2022-09-17T16:21:29.154Z,98769.69
2022-09-17T16:23:58.187Z,98764.16
2022-09-17T16:26:30.160Z,98777.13
2022-09-17T16:29:05.030Z,98776.97
2022-09-17T16:31:33.147Z,98777.88
2022-09-17T16:34:00.730Z,98776.41
2022-09-17T16:36:31.016Z,98775.84
2022-09-17T16:38:59.363Z,98788.28
2022-09-17T16:41:28.542Z,98779.75
2022-09-17T16:43:57.446Z,98778.28
2022-09-17T16:46:24.752Z,98780.31
2022-09-17T16:48:52.793Z,98781.44
2022-09-17T16:51:19.892Z,98782.56
2022-09-17T16:53:47.085Z,98794.59
2022-09-17T16:56:15.601Z,98789.59
2022-09-17T16:58:43.557Z,98785.34
2022-09-17T17:01:18.140Z,98785.34
2022-09-17T17:03:49.057Z,98789.78
2022-09-17T17:06:20.824Z,98793.31
2022-09-17T17:08:48.528Z,98799.25
2022-09-17T17:11:15.693Z,98801.66
2022-09-17T17:13:44.001Z,98793.16
2022-09-17T17:16:14.276Z,98799.41
2022-09-17T17:18:45.041Z,98793.78
2022-09-17T17:21:14.356Z,98803.41
2022-09-17T17:23:43.906Z,98801.31
2022-09-17T17:26:11.161Z,98801.81
2022-09-17T17:28:38.500Z,98803.63
2022-09-17T17:31:06.616Z,98804.16
2022-09-17T17:33:34.137Z,98799.31
2022-09-17T17:36:07.969Z,98798.00
2022-09-17T17:38:36.919Z,98791.28
2022-09-17T17:41:07.137Z,98786.84
2022-09-17T17:43:37.027Z,98796.81
2022-09-17T17:46:09.316Z,98791.44
2022-09-17T17:48:39.117Z,98798.78
2022-09-17T17:51:08.594Z,98803.41
2022-09-17T17:53:36.631Z,98796.72
2022-09-17T17:56:06.936Z,98804.31
2022-09-17T17:58:34.759Z,98801.34
2022-09-17T18:01:13.956Z,98807.75
2022-09-17T18:03:43.604Z,98807.41
2022-09-17T18:06:11.146Z,98813.31
2022-09-17T18:08:39.327Z,98814.03
2022-09-17T18:11:08.428Z,98820.53
2022-09-17T18:13:36.815Z,98818.84
2022-09-17T18:16:08.789Z,98830.09
2022-09-17T18:18:44.366Z,98838.97
2022-09-17T18:21:20.847Z,98841.53
2022-09-17T18:23:48.572Z,98845.19
2022-09-17T18:26:23.993Z,98847.22
2022-09-17T18:28:52.176Z,98847.97
2022-09-17T18:31:24.861Z,98855.72
2022-09-17T18:34:00.056Z,98865.94
2022-09-17T18:36:30.482Z,98862.06
2022-09-17T18:39:56.422Z,98871.66
2022-09-17T18:41:49.426Z,98863.34
2022-09-17T18:44:19.014Z,98862.06
2022-09-17T18:46:47.989Z,98867.41
2022-09-17T18:49:15.819Z,98876.69
2022-09-17T18:51:43.555Z,98879.44
2022-09-17T18:54:12.658Z,98877.53
2022-09-17T18:56:41.849Z,98878.69
2022-09-17T18:59:12.998Z,98876.84
2022-09-17T19:01:40.003Z,98880.50
2022-09-17T19:04:11.378Z,98885.91
2022-09-17T19:06:40.016Z,98880.78
2022-09-17T19:09:09.300Z,98887.78
2022-09-17T19:11:36.459Z,98888.34
2022-09-17T19:14:03.875Z,98894.63
2022-09-17T19:16:30.846Z,98893.34
2022-09-17T19:19:00.668Z,98894.63
2022-09-17T19:21:27.905Z,98893.13
2022-09-17T19:23:54.794Z,98890.91
2022-09-17T19:26:24.420Z,98882.81
2022-09-17T19:28:56.024Z,98883.56
2022-09-17T19:31:23.373Z,98885.03
2022-09-17T19:33:51.453Z,98874.34
2022-09-17T19:36:20.718Z,98881.03
2022-09-17T19:38:48.642Z,98879.19
2022-09-17T19:41:23.222Z,98881.44
2022-09-17T19:43:54.522Z,98871.81
2022-09-17T19:46:24.306Z,98877.34
2022-09-17T19:48:55.393Z,98869.78
2022-09-17T19:51:25.041Z,98872.78
2022-09-17T19:53:52.936Z,98872.22
2022-09-17T19:56:22.839Z,98875.00
2022-09-17T19:58:50.759Z,98867.78
2022-09-17T20:01:18.994Z,98868.31
2022-09-17T20:03:47.461Z,98869.59
2022-09-17T20:06:17.295Z,98873.47
2022-09-17T20:08:49.294Z,98874.56
2022-09-17T20:11:18.091Z,98875.28
2022-09-17T20:13:45.406Z,98884.13
2022-09-17T20:16:21.862Z,98878.59
2022-09-17T20:18:50.458Z,98869.91
2022-09-17T20:21:23.441Z,98870.25
2022-09-17T20:23:52.759Z,98869.09
2022-09-17T20:26:20.516Z,98869.09
2022-09-17T20:28:49.264Z,98869.28
2022-09-17T20:31:19.667Z,98862.66
2022-09-17T20:33:47.161Z,98871.94
2022-09-17T20:36:17.078Z,98873.22
2022-09-17T20:41:36.782Z,98872.69
2022-09-17T20:44:03.997Z,98876.91
2022-09-17T20:46:33.256Z,98873.41
2022-09-17T20:49:00.131Z,98878.75
2022-09-17T20:51:29.545Z,98886.88
2022-09-17T20:53:59.069Z,98871.84
2022-09-17T20:56:31.470Z,98878.91
2022-09-17T20:59:17.001Z,98886.06
2022-09-17T21:01:46.262Z,98884.91
2022-09-17T21:04:16.657Z,98896.00
2022-09-17T21:06:44.728Z,98894.13
2022-09-17T21:09:16.186Z,98897.56
2022-09-17T21:11:48.276Z,98903.09
2022-09-17T21:14:15.999Z,98910.47
2022-09-17T21:16:46.655Z,98905.03
2022-09-17T21:19:15.890Z,98905.03
2022-09-17T21:21:42.896Z,98910.19
2022-09-17T21:24:10.415Z,98914.78
2022-09-17T21:26:37.810Z,98917.44
2022-09-17T21:29:05.690Z,98909.56
2022-09-17T21:31:34.661Z,98912.44
2022-09-17T21:34:04.354Z,98904.09
2022-09-17T21:36:34.876Z,98915.16
2022-09-17T21:39:07.253Z,98915.47
2022-09-17T21:41:37.556Z,98916.69
2022-09-17T21:44:07.396Z,98905.00
2022-09-17T21:46:36.016Z,98917.13
2022-09-17T21:49:06.882Z,98913.41
2022-09-17T21:51:37.357Z,98912.25
2022-09-17T21:54:07.027Z,98904.50
2022-09-17T21:56:34.639Z,98908.66
2022-09-17T21:59:07.189Z,98912.22
2022-09-17T22:01:43.804Z,98909.78
2022-09-17T22:04:15.933Z,98895.94
2022-09-17T22:06:43.902Z,98907.13
2022-09-17T22:09:19.896Z,98905.44
2022-09-17T22:11:47.387Z,98902.25
2022-09-17T22:14:19.954Z,98894.47
2022-09-17T22:16:52.676Z,98900.22
2022-09-17T22:19:22.070Z,98892.25
2022-09-17T22:21:51.638Z,98890.53
2022-09-17T22:24:20.503Z,98885.88
2022-09-17T22:26:55.778Z,98896.59
2022-09-17T22:29:24.868Z,98887.88
2022-09-17T22:31:51.986Z,98891.94
2022-09-17T22:34:21.175Z,98890.03
2022-09-17T22:36:48.852Z,98884.28
2022-09-17T22:39:18.970Z,98886.09
2022-09-17T22:41:46.339Z,98891.63
2022-09-17T22:44:18.908Z,98897.78
2022-09-17T22:46:50.634Z,98897.34
2022-09-17T22:49:21.558Z,98915.66
2022-09-17T22:51:49.469Z,98898.75
2022-09-17T22:54:19.449Z,98913.88
2022-09-17T22:56:48.154Z,98908.88
2022-09-17T22:59:21.196Z,98913.66
2022-09-17T23:01:48.436Z,98912.69
2022-09-17T23:04:15.601Z,98921.28
2022-09-17T23:06:42.710Z,98914.59
2022-09-17T23:09:11.297Z,98918.94
2022-09-17T23:11:42.853Z,98905.97
2022-09-17T23:14:12.725Z,98914.25
2022-09-17T23:16:47.284Z,98903.66
2022-09-17T23:19:18.473Z,98900.44
2022-09-17T23:21:45.995Z,98919.56
2022-09-17T23:24:18.736Z,98909.19
2022-09-17T23:26:46.407Z,98915.88
2022-09-17T23:29:13.811Z,98902.91
2022-09-17T23:31:41.517Z,98913.19
2022-09-17T23:34:09.876Z,98918.09
2022-09-17T23:36:38.763Z,98912.34
2022-09-17T23:39:08.072Z,98921.50
2022-09-17T23:41:40.716Z,98928.09
2022-09-17T23:44:14.582Z,98918.09
2022-09-17T23:46:44.310Z,98924.34
2022-09-17T23:49:12.911Z,98924.34
2022-09-17T23:51:39.993Z,98929.03
2022-09-17T23:54:07.406Z,98927.97
2022-09-17T23:56:35.404Z,98917.03
2022-09-17T23:59:04.050Z,98918.00
